Погода Франсиску-Моратуна 2 недели

Сан-Паулу, Бразилия

21 июля-03 августа
  • 21июля
    Сегодня
    +11°
    +25°
    Ясно и безоблачно
    ВремяПогодаТемператураВлажностьДавлениеВетер, м/сВероятность осадков
    00:00Практически безоблачно+12°C97 %690 мм3.6 м/с2 %
    03:00Пасмурно, сплошная облачность+12°C99 %689 мм2.4 м/с5 %
    06:00Пасмурно, сплошная облачность+11°C99 %688 мм2.2 м/с5 %
    09:00Ясно и безоблачно+14°C81 %690 мм0.8 м/с5 %
    12:00Ясно и безоблачно+22°C50 %691 мм0.8 м/с5 %
    15:00Ясно и безоблачно+25°C43 %690 мм0.8 м/с5 %
    18:00Ясно и безоблачно+20°C70 %689 мм2.4 м/с5 %
    21:00Ясно и безоблачно+16°C85 %688 мм1.9 м/с5 %
  • 22июля
    Понедельник
    +9°
    +26°
    Ясно и безоблачно
    ВремяПогодаТемператураВлажностьДавлениеВетер, м/сВероятность осадков
    00:00Ясно и безоблачно+14°C90 %689 мм1.0 м/с5 %
    03:00Ясно и безоблачно+13°C92 %687 мм2.0 м/с5 %
    06:00Практически безоблачно+13°C84 %688 мм0.8 м/с5 %
    09:00Ясно и безоблачно+18°C62 %690 мм1.1 м/с5 %
    12:00Ясно и безоблачно+23°C39 %691 мм1.8 м/с5 %
    15:00Ясно и безоблачно+26°C37 %690 мм1.6 м/с5 %
    18:00Ясно и безоблачно+21°C67 %690 мм3.8 м/с5 %
    21:00Ясно и безоблачно+16°C86 %690 мм2.6 м/с5 %
  • 23июля
    Вторник
    +9°
    +24°
    Небольшая облачность
    ВремяПогодаТемператураВлажностьДавлениеВетер, м/сВероятность осадков
    00:00Ясно и безоблачно+13°C91 %690 мм2.1 м/с5 %
    03:00Практически безоблачно+12°C95 %688 мм2.1 м/с5 %
    06:00Практически безоблачно+12°C96 %689 мм2.3 м/с5 %
    09:00Ясно и безоблачно+15°C75 %691 мм2.1 м/с5 %
    12:00Ясно и безоблачно+22°C44 %691 мм2.3 м/с5 %
    15:00Небольшая облачность+24°C36 %690 мм2.8 м/с5 %
    18:00Ясно и безоблачно+19°C74 %690 мм2.9 м/с5 %
    21:00Практически безоблачно+14°C92 %690 мм2.0 м/с5 %
  • 24июля
    Среда
    +12°
    +26°
    Облачно с прояснениями
    ВремяПогодаТемператураВлажностьДавлениеВетер, м/сВероятность осадков
    00:00Облачно с прояснениями+14°C91 %689 мм1.8 м/с5 %
    03:00Практически безоблачно+11°C94 %688 мм1.7 м/с5 %
    06:00Ясно и безоблачно+10°C96 %688 мм1.7 м/с5 %
    09:00Практически безоблачно+16°C77 %690 мм0.8 м/с5 %
    12:00Облачно с прояснениями+23°C45 %692 мм1.3 м/с5 %
    15:00Облачно с прояснениями+26°C37 %690 мм1.3 м/с5 %
    18:00Небольшая облачность+22°C55 %690 мм1.5 м/с5 %
    21:00Небольшая облачность+17°C85 %690 мм1.7 м/с5 %
  • 25июля
    Четверг
    +13°
    +27°
    Ясно и безоблачно
    ВремяПогодаТемператураВлажностьДавлениеВетер, м/сВероятность осадков
    00:00Небольшая облачность+14°C96 %689 мм1.3 м/с5 %
    03:00Небольшая облачность+13°C97 %688 мм1.4 м/с5 %
    06:00Ясно и безоблачно+13°C87 %688 мм2.2 м/с5 %
    09:00Ясно и безоблачно+19°C63 %690 мм1.4 м/с5 %
    12:00Ясно и безоблачно+24°C37 %690 мм3.1 м/с5 %
    15:00Ясно и безоблачно+26°C33 %688 мм3.2 м/с5 %
    18:00Ясно и безоблачно+24°C44 %688 мм1.6 м/с5 %
    21:00Ясно и безоблачно+20°C51 %688 мм2.0 м/с5 %
Мы используем cookies
Соглашаюсь